Alyeska Resort
Hourly Weather - Base Weather Site
ALY_BASE_HR 8/30/2014
CLICK TO VIEW GRAPH!!

        DATE  TIME   Air  BATT   H2o   H2o   Rel
                    Temp  Volt  Inch Since  Hum%
                      F   AVG   1HR  0600   AVG

   8/30/2014 09:00    42 13.88  0.00  0.00    92
   8/30/2014 08:00    42 13.88  0.00  0.00    93
   8/30/2014 07:00    42 13.87  0.00  0.00    92
   8/30/2014 06:00    43 13.86  0.00  0.08    92
   8/30/2014 05:00    43 13.85  0.00  0.08    94
   8/30/2014 04:00    44 13.83  0.00  0.08    95
   8/30/2014 03:00    44 13.81  0.01  0.08    94
   8/30/2014 02:00    46 13.79  0.00  0.07    94
   8/30/2014 01:00    46 13.78  0.00  0.07    94
   8/29/2014 24:00    47 13.74  0.00  0.07    94
   8/29/2014 23:00    49 13.70  0.00  0.07    93
   8/29/2014 22:00    51 13.63  0.00  0.07    91
   8/29/2014 21:00    55 13.56  0.00  0.07    86
   8/29/2014 20:00    60 13.52  0.00  0.07    72
   8/29/2014 19:00    59 13.53  0.00  0.07    73
   8/29/2014 18:00    59 13.56  0.00  0.07    72
   8/29/2014 17:00    57 13.59  0.01  0.07    83
   8/29/2014 16:00    55 13.58  0.00  0.06    85
   8/29/2014 15:00    55 13.58  0.00  0.06    85
   8/29/2014 14:00    55 13.57  0.00  0.06    84
   8/29/2014 13:00    55 13.62  0.00  0.06    85
   8/29/2014 12:00    53 13.67  0.00  0.06    90
   8/29/2014 11:00    51 13.70  0.00  0.06    95
   8/29/2014 10:00    51 13.71  0.01  0.06    94


CLICK TO VIEW GRAPH!!